sensor_id;sensor_type;location;lat;lon;timestamp;P1;durP1;ratioP1;P2;durP2;ratioP2
30533;SDS011;17318;52.390;9.754;2023-09-07T00:02:16;6.80;;;2.72;;
30533;SDS011;17318;52.390;9.754;2023-09-07T00:04:42;8.27;;;2.95;;
30533;SDS011;17318;52.390;9.754;2023-09-07T00:07:08;5.65;;;3.40;;
30533;SDS011;17318;52.390;9.754;2023-09-07T00:09:34;7.53;;;3.30;;
30533;SDS011;17318;52.390;9.754;2023-09-07T00:12:00;8.77;;;3.03;;
30533;SDS011;17318;52.390;9.754;2023-09-07T00:14:25;4.75;;;2.83;;
30533;SDS011;17318;52.390;9.754;2023-09-07T00:16:51;6.22;;;2.90;;
30533;SDS011;17318;52.390;9.754;2023-09-07T00:19:16;7.97;;;3.55;;
30533;SDS011;17318;52.390;9.754;2023-09-07T00:21:42;6.53;;;2.78;;
30533;SDS011;17318;52.390;9.754;2023-09-07T00:24:08;4.65;;;3.03;;
30533;SDS011;17318;52.390;9.754;2023-09-07T00:26:34;8.60;;;3.42;;
30533;SDS011;17318;52.390;9.754;2023-09-07T00:29:00;4.40;;;2.70;;
30533;SDS011;17318;52.390;9.754;2023-09-07T00:31:25;8.02;;;2.88;;
30533;SDS011;17318;52.390;9.754;2023-09-07T00:33:51;4.53;;;3.05;;
30533;SDS011;17318;52.390;9.754;2023-09-07T00:36:17;7.28;;;2.90;;
30533;SDS011;17318;52.390;9.754;2023-09-07T00:38:43;5.45;;;3.38;;
30533;SDS011;17318;52.390;9.754;2023-09-07T00:41:09;7.70;;;3.50;;
30533;SDS011;17318;52.390;9.754;2023-09-07T00:43:34;5.28;;;3.15;;
30533;SDS011;17318;52.390;9.754;2023-09-07T00:46:00;5.97;;;3.22;;
30533;SDS011;17318;52.390;9.754;2023-09-07T00:48:26;9.98;;;3.95;;
30533;SDS011;17318;52.390;9.754;2023-09-07T00:50:52;6.07;;;3.35;;
30533;SDS011;17318;52.390;9.754;2023-09-07T00:56:02;6.50;;;3.25;;
30533;SDS011;17318;52.390;9.754;2023-09-07T01:01:13;8.38;;;3.55;;
30533;SDS011;17318;52.390;9.754;2023-09-07T01:03:38;5.65;;;3.70;;
30533;SDS011;17318;52.390;9.754;2023-09-07T01:06:07;7.30;;;3.40;;
30533;SDS011;17318;52.390;9.754;2023-09-07T01:08:44;6.10;;;3.80;;
30533;SDS011;17318;52.390;9.754;2023-09-07T01:11:22;7.90;;;3.58;;
30533;SDS011;17318;52.390;9.754;2023-09-07T01:13:51;6.45;;;3.80;;
30533;SDS011;17318;52.390;9.754;2023-09-07T01:16:20;5.65;;;3.50;;
30533;SDS011;17318;52.390;9.754;2023-09-07T01:18:48;9.02;;;3.55;;
30533;SDS011;17318;52.390;9.754;2023-09-07T01:21:14;7.47;;;3.90;;
30533;SDS011;17318;52.390;9.754;2023-09-07T01:23:41;7.22;;;3.60;;
30533;SDS011;17318;52.390;9.754;2023-09-07T01:26:08;6.30;;;3.42;;
30533;SDS011;17318;52.390;9.754;2023-09-07T01:28:35;7.85;;;3.50;;
30533;SDS011;17318;52.390;9.754;2023-09-07T01:31:02;6.53;;;3.80;;
30533;SDS011;17318;52.390;9.754;2023-09-07T01:33:28;9.25;;;4.03;;
30533;SDS011;17318;52.390;9.754;2023-09-07T01:35:53;5.65;;;3.30;;
30533;SDS011;17318;52.390;9.754;2023-09-07T01:38:19;7.85;;;3.40;;
30533;SDS011;17318;52.390;9.754;2023-09-07T01:40:45;10.63;;;4.00;;
30533;SDS011;17318;52.390;9.754;2023-09-07T01:43:11;8.05;;;3.30;;
30533;SDS011;17318;52.390;9.754;2023-09-07T01:45:36;5.78;;;3.15;;
30533;SDS011;17318;52.390;9.754;2023-09-07T01:48:02;7.80;;;3.80;;
30533;SDS011;17318;52.390;9.754;2023-09-07T01:50:28;6.20;;;3.22;;
30533;SDS011;17318;52.390;9.754;2023-09-07T01:52:54;7.72;;;3.63;;
30533;SDS011;17318;52.390;9.754;2023-09-07T01:55:19;6.32;;;3.97;;
30533;SDS011;17318;52.390;9.754;2023-09-07T01:57:45;7.05;;;3.60;;
30533;SDS011;17318;52.390;9.754;2023-09-07T02:00:11;10.70;;;4.30;;
30533;SDS011;17318;52.390;9.754;2023-09-07T02:02:37;10.02;;;3.97;;
30533;SDS011;17318;52.390;9.754;2023-09-07T02:05:03;5.85;;;3.70;;
30533;SDS011;17318;52.390;9.754;2023-09-07T02:07:29;8.68;;;3.53;;
30533;SDS011;17318;52.390;9.754;2023-09-07T02:09:55;6.70;;;4.10;;
30533;SDS011;17318;52.390;9.754;2023-09-07T02:12:20;6.60;;;3.53;;
30533;SDS011;17318;52.390;9.754;2023-09-07T02:14:46;7.07;;;3.90;;
30533;SDS011;17318;52.390;9.754;2023-09-07T02:17:12;7.85;;;4.68;;
30533;SDS011;17318;52.390;9.754;2023-09-07T02:19:42;7.88;;;4.57;;
30533;SDS011;17318;52.390;9.754;2023-09-07T02:22:08;6.57;;;3.67;;
30533;SDS011;17318;52.390;9.754;2023-09-07T02:24:34;12.23;;;4.45;;
30533;SDS011;17318;52.390;9.754;2023-09-07T02:27:00;8.25;;;4.55;;
30533;SDS011;17318;52.390;9.754;2023-09-07T02:29:25;6.80;;;4.40;;
30533;SDS011;17318;52.390;9.754;2023-09-07T02:31:51;7.50;;;4.13;;
30533;SDS011;17318;52.390;9.754;2023-09-07T02:34:17;9.35;;;4.45;;
30533;SDS011;17318;52.390;9.754;2023-09-07T02:36:43;10.27;;;4.75;;
30533;SDS011;17318;52.390;9.754;2023-09-07T02:39:09;7.40;;;4.10;;
30533;SDS011;17318;52.390;9.754;2023-09-07T02:41:37;7.93;;;4.45;;
30533;SDS011;17318;52.390;9.754;2023-09-07T02:44:03;11.20;;;4.45;;
30533;SDS011;17318;52.390;9.754;2023-09-07T02:46:29;7.25;;;4.53;;
30533;SDS011;17318;52.390;9.754;2023-09-07T02:48:55;10.65;;;4.90;;
30533;SDS011;17318;52.390;9.754;2023-09-07T02:51:23;11.00;;;4.68;;
30533;SDS011;17318;52.390;9.754;2023-09-07T02:53:50;10.27;;;5.03;;
30533;SDS011;17318;52.390;9.754;2023-09-07T02:56:16;7.93;;;4.68;;
30533;SDS011;17318;52.390;9.754;2023-09-07T02:58:41;9.52;;;4.60;;
30533;SDS011;17318;52.390;9.754;2023-09-07T03:01:07;8.90;;;4.70;;
30533;SDS011;17318;52.390;9.754;2023-09-07T03:03:37;8.90;;;4.53;;
30533;SDS011;17318;52.390;9.754;2023-09-07T03:06:12;10.18;;;4.57;;
30533;SDS011;17318;52.390;9.754;2023-09-07T03:08:42;7.13;;;4.40;;
30533;SDS011;17318;52.390;9.754;2023-09-07T03:11:08;11.65;;;5.28;;
30533;SDS011;17318;52.390;9.754;2023-09-07T03:13:34;7.95;;;4.72;;
30533;SDS011;17318;52.390;9.754;2023-09-07T03:16:01;7.38;;;4.30;;
30533;SDS011;17318;52.390;9.754;2023-09-07T03:18:27;6.77;;;4.93;;
30533;SDS011;17318;52.390;9.754;2023-09-07T03:20:54;10.27;;;5.13;;
30533;SDS011;17318;52.390;9.754;2023-09-07T03:23:23;7.65;;;4.72;;
30533;SDS011;17318;52.390;9.754;2023-09-07T03:25:49;8.07;;;4.55;;
30533;SDS011;17318;52.390;9.754;2023-09-07T03:28:15;11.27;;;5.13;;
30533;SDS011;17318;52.390;9.754;2023-09-07T03:30:41;8.75;;;5.00;;
30533;SDS011;17318;52.390;9.754;2023-09-07T03:33:06;10.88;;;5.00;;
30533;SDS011;17318;52.390;9.754;2023-09-07T03:35:32;8.45;;;5.03;;
30533;SDS011;17318;52.390;9.754;2023-09-07T03:37:58;14.35;;;5.22;;
30533;SDS011;17318;52.390;9.754;2023-09-07T03:40:23;10.05;;;4.90;;
30533;SDS011;17318;52.390;9.754;2023-09-07T03:42:49;14.52;;;6.15;;
30533;SDS011;17318;52.390;9.754;2023-09-07T03:45:15;22.45;;;5.78;;
30533;SDS011;17318;52.390;9.754;2023-09-07T03:47:41;9.32;;;5.35;;
30533;SDS011;17318;52.390;9.754;2023-09-07T03:50:07;13.63;;;5.65;;
30533;SDS011;17318;52.390;9.754;2023-09-07T03:52:33;13.38;;;5.28;;
30533;SDS011;17318;52.390;9.754;2023-09-07T03:54:59;11.43;;;5.35;;
30533;SDS011;17318;52.390;9.754;2023-09-07T03:57:25;15.07;;;5.53;;
30533;SDS011;17318;52.390;9.754;2023-09-07T03:59:52;14.10;;;6.32;;
30533;SDS011;17318;52.390;9.754;2023-09-07T04:02:18;12.90;;;5.85;;
30533;SDS011;17318;52.390;9.754;2023-09-07T04:04:48;17.85;;;5.35;;
30533;SDS011;17318;52.390;9.754;2023-09-07T04:07:15;11.05;;;5.28;;
30533;SDS011;17318;52.390;9.754;2023-09-07T04:09:41;21.70;;;7.57;;
30533;SDS011;17318;52.390;9.754;2023-09-07T04:12:07;19.50;;;5.60;;
30533;SDS011;17318;52.390;9.754;2023-09-07T04:14:33;16.88;;;5.80;;
30533;SDS011;17318;52.390;9.754;2023-09-07T04:16:58;13.55;;;6.47;;
30533;SDS011;17318;52.390;9.754;2023-09-07T04:19:24;9.90;;;5.63;;
30533;SDS011;17318;52.390;9.754;2023-09-07T04:21:50;10.13;;;6.00;;
30533;SDS011;17318;52.390;9.754;2023-09-07T04:24:16;13.35;;;5.53;;
30533;SDS011;17318;52.390;9.754;2023-09-07T04:26:42;9.27;;;5.72;;
30533;SDS011;17318;52.390;9.754;2023-09-07T04:29:08;10.52;;;5.47;;
30533;SDS011;17318;52.390;9.754;2023-09-07T04:31:34;10.48;;;5.18;;
30533;SDS011;17318;52.390;9.754;2023-09-07T04:33:59;13.82;;;5.80;;
30533;SDS011;17318;52.390;9.754;2023-09-07T04:36:26;13.00;;;5.25;;
30533;SDS011;17318;52.390;9.754;2023-09-07T04:38:51;14.70;;;6.55;;
30533;SDS011;17318;52.390;9.754;2023-09-07T04:41:17;24.55;;;6.68;;
30533;SDS011;17318;52.390;9.754;2023-09-07T04:43:45;12.60;;;6.00;;
30533;SDS011;17318;52.390;9.754;2023-09-07T04:46:11;20.38;;;6.53;;
30533;SDS011;17318;52.390;9.754;2023-09-07T04:48:38;16.58;;;6.50;;
30533;SDS011;17318;52.390;9.754;2023-09-07T04:51:06;14.77;;;7.00;;
30533;SDS011;17318;52.390;9.754;2023-09-07T04:53:34;20.13;;;6.13;;
30533;SDS011;17318;52.390;9.754;2023-09-07T04:56:01;13.82;;;6.10;;
30533;SDS011;17318;52.390;9.754;2023-09-07T04:58:31;24.08;;;6.93;;
30533;SDS011;17318;52.390;9.754;2023-09-07T05:01:07;19.65;;;6.45;;
30533;SDS011;17318;52.390;9.754;2023-09-07T05:03:34;16.55;;;6.35;;
30533;SDS011;17318;52.390;9.754;2023-09-07T05:06:01;11.30;;;6.65;;
30533;SDS011;17318;52.390;9.754;2023-09-07T05:08:29;14.07;;;6.70;;
30533;SDS011;17318;52.390;9.754;2023-09-07T05:10:56;17.80;;;6.30;;
30533;SDS011;17318;52.390;9.754;2023-09-07T05:13:23;11.65;;;6.45;;
30533;SDS011;17318;52.390;9.754;2023-09-07T05:15:49;14.35;;;6.60;;
30533;SDS011;17318;52.390;9.754;2023-09-07T05:18:16;17.30;;;6.72;;
30533;SDS011;17318;52.390;9.754;2023-09-07T05:20:42;15.07;;;6.35;;
30533;SDS011;17318;52.390;9.754;2023-09-07T05:23:10;13.25;;;6.97;;
30533;SDS011;17318;52.390;9.754;2023-09-07T05:25:48;14.85;;;6.55;;
30533;SDS011;17318;52.390;9.754;2023-09-07T05:28:16;20.75;;;6.82;;
30533;SDS011;17318;52.390;9.754;2023-09-07T05:30:42;18.50;;;8.20;;
30533;SDS011;17318;52.390;9.754;2023-09-07T05:33:12;13.00;;;6.15;;
30533;SDS011;17318;52.390;9.754;2023-09-07T05:35:39;18.20;;;6.53;;
30533;SDS011;17318;52.390;9.754;2023-09-07T05:38:05;14.25;;;7.50;;
30533;SDS011;17318;52.390;9.754;2023-09-07T05:40:34;18.70;;;7.05;;
30533;SDS011;17318;52.390;9.754;2023-09-07T05:43:04;14.73;;;6.85;;
30533;SDS011;17318;52.390;9.754;2023-09-07T05:45:30;11.00;;;6.88;;
30533;SDS011;17318;52.390;9.754;2023-09-07T05:47:57;14.65;;;7.07;;
30533;SDS011;17318;52.390;9.754;2023-09-07T05:50:22;15.35;;;6.72;;
30533;SDS011;17318;52.390;9.754;2023-09-07T05:52:48;16.52;;;7.45;;
30533;SDS011;17318;52.390;9.754;2023-09-07T05:55:14;12.52;;;6.65;;
30533;SDS011;17318;52.390;9.754;2023-09-07T05:57:39;15.98;;;7.28;;
30533;SDS011;17318;52.390;9.754;2023-09-07T06:00:05;10.55;;;6.20;;
30533;SDS011;17318;52.390;9.754;2023-09-07T06:02:31;14.27;;;6.63;;
30533;SDS011;17318;52.390;9.754;2023-09-07T06:04:57;15.68;;;6.50;;
30533;SDS011;17318;52.390;9.754;2023-09-07T06:07:23;17.60;;;6.85;;
30533;SDS011;17318;52.390;9.754;2023-09-07T06:09:48;11.85;;;6.82;;
30533;SDS011;17318;52.390;9.754;2023-09-07T06:12:14;15.43;;;6.75;;
30533;SDS011;17318;52.390;9.754;2023-09-07T06:14:40;18.27;;;7.25;;
30533;SDS011;17318;52.390;9.754;2023-09-07T06:17:05;15.90;;;6.68;;
30533;SDS011;17318;52.390;9.754;2023-09-07T06:19:31;20.95;;;7.57;;
30533;SDS011;17318;52.390;9.754;2023-09-07T06:21:56;23.83;;;7.00;;
30533;SDS011;17318;52.390;9.754;2023-09-07T06:24:22;13.73;;;6.82;;
30533;SDS011;17318;52.390;9.754;2023-09-07T06:26:48;12.82;;;6.82;;
30533;SDS011;17318;52.390;9.754;2023-09-07T06:29:14;15.13;;;6.78;;
30533;SDS011;17318;52.390;9.754;2023-09-07T06:31:40;13.07;;;7.03;;
30533;SDS011;17318;52.390;9.754;2023-09-07T06:34:06;19.75;;;8.30;;
30533;SDS011;17318;52.390;9.754;2023-09-07T06:36:31;14.23;;;7.63;;
30533;SDS011;17318;52.390;9.754;2023-09-07T06:38:57;12.57;;;6.35;;
30533;SDS011;17318;52.390;9.754;2023-09-07T06:41:24;17.50;;;7.18;;
30533;SDS011;17318;52.390;9.754;2023-09-07T06:43:49;13.23;;;5.93;;
30533;SDS011;17318;52.390;9.754;2023-09-07T06:46:15;13.93;;;6.65;;
30533;SDS011;17318;52.390;9.754;2023-09-07T06:48:41;17.33;;;7.55;;
30533;SDS011;17318;52.390;9.754;2023-09-07T06:51:07;20.23;;;8.43;;
30533;SDS011;17318;52.390;9.754;2023-09-07T06:53:34;15.97;;;7.37;;
30533;SDS011;17318;52.390;9.754;2023-09-07T06:56:00;15.05;;;7.60;;
30533;SDS011;17318;52.390;9.754;2023-09-07T06:58:27;19.70;;;6.82;;
30533;SDS011;17318;52.390;9.754;2023-09-07T07:00:56;20.15;;;6.85;;
30533;SDS011;17318;52.390;9.754;2023-09-07T07:03:26;16.08;;;6.63;;
30533;SDS011;17318;52.390;9.754;2023-09-07T07:05:53;23.00;;;6.85;;
30533;SDS011;17318;52.390;9.754;2023-09-07T07:08:19;23.10;;;8.93;;
30533;SDS011;17318;52.390;9.754;2023-09-07T07:10:44;28.95;;;11.70;;
30533;SDS011;17318;52.390;9.754;2023-09-07T07:13:10;16.30;;;8.23;;
30533;SDS011;17318;52.390;9.754;2023-09-07T07:15:36;18.67;;;8.48;;
30533;SDS011;17318;52.390;9.754;2023-09-07T07:18:02;23.80;;;8.38;;
30533;SDS011;17318;52.390;9.754;2023-09-07T07:20:34;16.83;;;7.20;;
30533;SDS011;17318;52.390;9.754;2023-09-07T07:23:00;18.92;;;7.15;;
30533;SDS011;17318;52.390;9.754;2023-09-07T07:25:26;15.45;;;6.70;;
30533;SDS011;17318;52.390;9.754;2023-09-07T07:27:51;22.13;;;8.02;;
30533;SDS011;17318;52.390;9.754;2023-09-07T07:30:17;21.65;;;6.95;;
30533;SDS011;17318;52.390;9.754;2023-09-07T07:32:42;17.67;;;6.78;;
30533;SDS011;17318;52.390;9.754;2023-09-07T07:35:08;13.68;;;6.57;;
30533;SDS011;17318;52.390;9.754;2023-09-07T07:37:34;11.82;;;5.90;;
30533;SDS011;17318;52.390;9.754;2023-09-07T07:39:59;15.70;;;5.85;;
30533;SDS011;17318;52.390;9.754;2023-09-07T07:42:25;21.48;;;6.78;;
30533;SDS011;17318;52.390;9.754;2023-09-07T07:44:51;16.83;;;7.47;;
30533;SDS011;17318;52.390;9.754;2023-09-07T07:47:16;20.00;;;6.68;;
30533;SDS011;17318;52.390;9.754;2023-09-07T07:49:42;16.70;;;7.30;;
30533;SDS011;17318;52.390;9.754;2023-09-07T07:52:07;17.05;;;7.30;;
30533;SDS011;17318;52.390;9.754;2023-09-07T07:54:33;14.80;;;6.88;;
30533;SDS011;17318;52.390;9.754;2023-09-07T07:57:00;21.80;;;6.78;;
30533;SDS011;17318;52.390;9.754;2023-09-07T07:59:25;15.70;;;5.30;;
30533;SDS011;17318;52.390;9.754;2023-09-07T08:01:51;14.52;;;5.55;;
30533;SDS011;17318;52.390;9.754;2023-09-07T08:04:17;10.90;;;5.43;;
30533;SDS011;17318;52.390;9.754;2023-09-07T08:06:42;23.98;;;5.97;;
30533;SDS011;17318;52.390;9.754;2023-09-07T08:09:08;15.70;;;6.18;;
30533;SDS011;17318;52.390;9.754;2023-09-07T08:11:35;18.38;;;6.00;;
30533;SDS011;17318;52.390;9.754;2023-09-07T08:14:01;21.08;;;6.22;;
30533;SDS011;17318;52.390;9.754;2023-09-07T08:16:27;19.08;;;6.45;;
30533;SDS011;17318;52.390;9.754;2023-09-07T08:18:52;12.95;;;6.05;;
30533;SDS011;17318;52.390;9.754;2023-09-07T08:21:18;13.40;;;5.65;;
30533;SDS011;17318;52.390;9.754;2023-09-07T08:23:44;13.10;;;5.40;;
30533;SDS011;17318;52.390;9.754;2023-09-07T08:26:09;17.40;;;6.38;;
30533;SDS011;17318;52.390;9.754;2023-09-07T08:28:35;16.50;;;5.50;;
30533;SDS011;17318;52.390;9.754;2023-09-07T08:31:00;30.73;;;6.78;;
30533;SDS011;17318;52.390;9.754;2023-09-07T08:33:26;13.43;;;5.30;;
30533;SDS011;17318;52.390;9.754;2023-09-07T08:35:58;9.88;;;4.50;;
30533;SDS011;17318;52.390;9.754;2023-09-07T08:38:25;17.92;;;6.63;;
30533;SDS011;17318;52.390;9.754;2023-09-07T08:40:56;7.68;;;4.57;;
30533;SDS011;17318;52.390;9.754;2023-09-07T08:43:26;10.45;;;4.30;;
30533;SDS011;17318;52.390;9.754;2023-09-07T08:46:36;7.78;;;4.30;;
30533;SDS011;17318;52.390;9.754;2023-09-07T08:48:46;11.95;;;4.05;;
30533;SDS011;17318;52.390;9.754;2023-09-07T08:51:12;21.10;;;7.03;;
30533;SDS011;17318;52.390;9.754;2023-09-07T08:53:40;10.95;;;4.40;;
30533;SDS011;17318;52.390;9.754;2023-09-07T08:56:07;14.57;;;7.68;;
30533;SDS011;17318;52.390;9.754;2023-09-07T08:58:36;20.00;;;7.20;;
30533;SDS011;17318;52.390;9.754;2023-09-07T09:01:01;6.78;;;4.10;;
30533;SDS011;17318;52.390;9.754;2023-09-07T09:03:28;12.95;;;4.47;;
30533;SDS011;17318;52.390;9.754;2023-09-07T09:05:55;12.23;;;4.78;;
30533;SDS011;17318;52.390;9.754;2023-09-07T09:08:22;6.20;;;4.10;;
30533;SDS011;17318;52.390;9.754;2023-09-07T09:10:58;9.95;;;4.28;;
30533;SDS011;17318;52.390;9.754;2023-09-07T09:13:31;10.77;;;4.45;;
30533;SDS011;17318;52.390;9.754;2023-09-07T09:16:00;10.13;;;4.38;;
30533;SDS011;17318;52.390;9.754;2023-09-07T09:18:26;16.38;;;6.30;;
30533;SDS011;17318;52.390;9.754;2023-09-07T09:20:53;11.55;;;5.20;;
30533;SDS011;17318;52.390;9.754;2023-09-07T09:23:20;10.43;;;4.25;;
30533;SDS011;17318;52.390;9.754;2023-09-07T09:25:47;7.28;;;3.80;;
30533;SDS011;17318;52.390;9.754;2023-09-07T09:28:14;12.50;;;4.15;;
30533;SDS011;17318;52.390;9.754;2023-09-07T09:30:40;9.45;;;5.43;;
30533;SDS011;17318;52.390;9.754;2023-09-07T09:33:09;11.32;;;4.85;;
30533;SDS011;17318;52.390;9.754;2023-09-07T09:38:03;12.85;;;4.50;;
30533;SDS011;17318;52.390;9.754;2023-09-07T09:40:29;13.13;;;4.80;;
30533;SDS011;17318;52.390;9.754;2023-09-07T09:43:02;7.22;;;4.10;;
30533;SDS011;17318;52.390;9.754;2023-09-07T09:45:30;8.98;;;4.30;;
30533;SDS011;17318;52.390;9.754;2023-09-07T09:47:57;8.75;;;4.60;;
30533;SDS011;17318;52.390;9.754;2023-09-07T09:50:25;8.25;;;4.18;;
30533;SDS011;17318;52.390;9.754;2023-09-07T09:52:52;11.20;;;4.57;;
30533;SDS011;17318;52.390;9.754;2023-09-07T09:55:18;8.57;;;4.43;;
30533;SDS011;17318;52.390;9.754;2023-09-07T09:57:44;12.48;;;4.03;;
30533;SDS011;17318;52.390;9.754;2023-09-07T10:00:10;10.45;;;4.82;;
30533;SDS011;17318;52.390;9.754;2023-09-07T10:02:42;5.57;;;4.57;;
30533;SDS011;17318;52.390;9.754;2023-09-07T10:05:10;9.52;;;4.75;;
30533;SDS011;17318;52.390;9.754;2023-09-07T10:07:42;11.73;;;4.70;;
30533;SDS011;17318;52.390;9.754;2023-09-07T10:10:09;14.02;;;4.30;;
30533;SDS011;17318;52.390;9.754;2023-09-07T10:12:41;9.00;;;4.32;;
30533;SDS011;17318;52.390;9.754;2023-09-07T10:15:19;8.45;;;4.50;;
30533;SDS011;17318;52.390;9.754;2023-09-07T10:17:45;7.45;;;4.40;;
30533;SDS011;17318;52.390;9.754;2023-09-07T10:20:15;11.30;;;4.15;;
30533;SDS011;17318;52.390;9.754;2023-09-07T10:22:42;10.02;;;4.15;;
30533;SDS011;17318;52.390;9.754;2023-09-07T10:25:20;9.10;;;4.65;;
30533;SDS011;17318;52.390;9.754;2023-09-07T10:27:47;6.15;;;3.88;;
30533;SDS011;17318;52.390;9.754;2023-09-07T10:30:13;7.90;;;4.10;;
30533;SDS011;17318;52.390;9.754;2023-09-07T10:32:44;7.82;;;4.13;;
30533;SDS011;17318;52.390;9.754;2023-09-07T10:35:13;7.10;;;3.83;;
30533;SDS011;17318;52.390;9.754;2023-09-07T10:37:46;7.20;;;4.28;;
30533;SDS011;17318;52.390;9.754;2023-09-07T10:40:12;7.20;;;3.70;;
30533;SDS011;17318;52.390;9.754;2023-09-07T10:42:43;6.43;;;3.90;;
30533;SDS011;17318;52.390;9.754;2023-09-07T10:45:10;7.27;;;3.90;;
30533;SDS011;17318;52.390;9.754;2023-09-07T10:47:40;9.57;;;5.00;;
30533;SDS011;17318;52.390;9.754;2023-09-07T10:50:08;7.45;;;3.78;;
30533;SDS011;17318;52.390;9.754;2023-09-07T10:52:35;6.30;;;3.88;;
30533;SDS011;17318;52.390;9.754;2023-09-07T10:55:01;4.85;;;3.80;;
30533;SDS011;17318;52.390;9.754;2023-09-07T10:57:27;4.95;;;3.53;;
30533;SDS011;17318;52.390;9.754;2023-09-07T10:59:52;5.47;;;4.28;;
30533;SDS011;17318;52.390;9.754;2023-09-07T11:02:20;7.72;;;4.47;;
30533;SDS011;17318;52.390;9.754;2023-09-07T11:04:46;13.25;;;4.88;;
30533;SDS011;17318;52.390;9.754;2023-09-07T11:07:11;7.20;;;4.35;;
30533;SDS011;17318;52.390;9.754;2023-09-07T11:09:41;8.07;;;3.77;;
30533;SDS011;17318;52.390;9.754;2023-09-07T11:12:07;6.20;;;4.20;;
30533;SDS011;17318;52.390;9.754;2023-09-07T11:14:34;5.70;;;3.85;;
30533;SDS011;17318;52.390;9.754;2023-09-07T11:17:03;7.28;;;4.40;;
30533;SDS011;17318;52.390;9.754;2023-09-07T11:19:31;6.75;;;5.43;;
30533;SDS011;17318;52.390;9.754;2023-09-07T11:21:58;8.68;;;5.28;;
30533;SDS011;17318;52.390;9.754;2023-09-07T11:24:23;10.20;;;5.63;;
30533;SDS011;17318;52.390;9.754;2023-09-07T11:29:16;8.53;;;4.93;;
30533;SDS011;17318;52.390;9.754;2023-09-07T11:31:46;12.10;;;4.05;;
30533;SDS011;17318;52.390;9.754;2023-09-07T11:34:12;11.27;;;7.22;;
30533;SDS011;17318;52.390;9.754;2023-09-07T11:36:42;9.50;;;5.10;;
30533;SDS011;17318;52.390;9.754;2023-09-07T11:39:11;6.45;;;3.45;;
30533;SDS011;17318;52.390;9.754;2023-09-07T11:41:43;14.18;;;4.95;;
30533;SDS011;17318;52.390;9.754;2023-09-07T11:44:10;6.90;;;3.75;;
30533;SDS011;17318;52.390;9.754;2023-09-07T11:46:36;6.97;;;3.90;;
30533;SDS011;17318;52.390;9.754;2023-09-07T11:49:02;7.07;;;4.30;;
30533;SDS011;17318;52.390;9.754;2023-09-07T11:53:55;10.40;;;3.90;;
30533;SDS011;17318;52.390;9.754;2023-09-07T11:56:21;7.28;;;4.15;;
30533;SDS011;17318;52.390;9.754;2023-09-07T11:58:47;5.80;;;4.10;;
30533;SDS011;17318;52.390;9.754;2023-09-07T12:01:12;7.93;;;4.05;;
30533;SDS011;17318;52.390;9.754;2023-09-07T12:03:41;7.82;;;3.58;;
30533;SDS011;17318;52.390;9.754;2023-09-07T12:06:08;7.27;;;3.83;;
30533;SDS011;17318;52.390;9.754;2023-09-07T12:08:34;8.43;;;3.78;;
30533;SDS011;17318;52.390;9.754;2023-09-07T12:11:00;6.45;;;4.05;;
30533;SDS011;17318;52.390;9.754;2023-09-07T12:13:26;7.32;;;3.83;;
30533;SDS011;17318;52.390;9.754;2023-09-07T12:15:52;6.30;;;3.88;;
30533;SDS011;17318;52.390;9.754;2023-09-07T12:18:17;4.97;;;3.47;;
30533;SDS011;17318;52.390;9.754;2023-09-07T12:20:43;9.45;;;4.22;;
30533;SDS011;17318;52.390;9.754;2023-09-07T12:23:10;5.97;;;4.10;;
30533;SDS011;17318;52.390;9.754;2023-09-07T12:25:35;5.10;;;3.70;;
30533;SDS011;17318;52.390;9.754;2023-09-07T12:28:02;8.52;;;4.43;;
30533;SDS011;17318;52.390;9.754;2023-09-07T12:30:28;5.88;;;4.00;;
30533;SDS011;17318;52.390;9.754;2023-09-07T12:32:54;7.30;;;3.85;;
30533;SDS011;17318;52.390;9.754;2023-09-07T12:35:19;4.68;;;3.63;;
30533;SDS011;17318;52.390;9.754;2023-09-07T12:37:46;6.47;;;4.35;;
30533;SDS011;17318;52.390;9.754;2023-09-07T12:40:12;10.63;;;3.97;;
30533;SDS011;17318;52.390;9.754;2023-09-07T12:42:41;7.82;;;3.85;;
30533;SDS011;17318;52.390;9.754;2023-09-07T12:45:09;8.43;;;4.60;;
30533;SDS011;17318;52.390;9.754;2023-09-07T12:47:40;5.25;;;3.42;;
30533;SDS011;17318;52.390;9.754;2023-09-07T12:50:06;7.07;;;3.65;;
30533;SDS011;17318;52.390;9.754;2023-09-07T12:52:32;15.18;;;3.60;;
30533;SDS011;17318;52.390;9.754;2023-09-07T12:55:00;8.63;;;3.58;;
30533;SDS011;17318;52.390;9.754;2023-09-07T12:57:27;8.80;;;3.20;;
30533;SDS011;17318;52.390;9.754;2023-09-07T12:59:53;6.95;;;3.22;;
30533;SDS011;17318;52.390;9.754;2023-09-07T13:02:18;7.47;;;3.65;;
30533;SDS011;17318;52.390;9.754;2023-09-07T13:04:44;7.53;;;3.50;;
30533;SDS011;17318;52.390;9.754;2023-09-07T13:07:09;6.25;;;3.72;;
30533;SDS011;17318;52.390;9.754;2023-09-07T13:09:35;6.18;;;3.97;;
30533;SDS011;17318;52.390;9.754;2023-09-07T13:12:01;9.55;;;5.18;;
30533;SDS011;17318;52.390;9.754;2023-09-07T13:14:26;6.30;;;3.63;;
30533;SDS011;17318;52.390;9.754;2023-09-07T13:16:52;9.75;;;5.75;;
30533;SDS011;17318;52.390;9.754;2023-09-07T13:19:19;9.10;;;4.05;;
30533;SDS011;17318;52.390;9.754;2023-09-07T13:21:45;10.38;;;4.22;;
30533;SDS011;17318;52.390;9.754;2023-09-07T13:24:11;9.77;;;4.32;;
30533;SDS011;17318;52.390;9.754;2023-09-07T13:26:36;7.50;;;4.05;;
30533;SDS011;17318;52.390;9.754;2023-09-07T13:29:02;8.27;;;3.28;;
30533;SDS011;17318;52.390;9.754;2023-09-07T13:31:27;7.25;;;3.40;;
30533;SDS011;17318;52.390;9.754;2023-09-07T13:33:53;6.00;;;3.58;;
30533;SDS011;17318;52.390;9.754;2023-09-07T13:36:19;6.03;;;3.22;;
30533;SDS011;17318;52.390;9.754;2023-09-07T13:38:44;7.47;;;3.88;;
30533;SDS011;17318;52.390;9.754;2023-09-07T13:41:10;9.25;;;3.53;;
30533;SDS011;17318;52.390;9.754;2023-09-07T13:43:35;5.47;;;3.60;;
30533;SDS011;17318;52.390;9.754;2023-09-07T13:46:01;5.65;;;3.05;;
30533;SDS011;17318;52.390;9.754;2023-09-07T13:48:27;4.93;;;3.45;;
30533;SDS011;17318;52.390;9.754;2023-09-07T13:50:52;6.05;;;3.20;;
30533;SDS011;17318;52.390;9.754;2023-09-07T13:53:18;5.57;;;3.60;;
30533;SDS011;17318;52.390;9.754;2023-09-07T13:55:44;9.15;;;3.70;;
30533;SDS011;17318;52.390;9.754;2023-09-07T13:58:11;6.45;;;3.72;;
30533;SDS011;17318;52.390;9.754;2023-09-07T14:00:37;6.82;;;3.17;;
30533;SDS011;17318;52.390;9.754;2023-09-07T14:03:03;5.60;;;3.42;;
30533;SDS011;17318;52.390;9.754;2023-09-07T14:05:29;6.63;;;3.30;;
30533;SDS011;17318;52.390;9.754;2023-09-07T14:07:55;8.02;;;3.03;;
30533;SDS011;17318;52.390;9.754;2023-09-07T14:10:22;7.53;;;3.08;;
30533;SDS011;17318;52.390;9.754;2023-09-07T14:12:48;6.50;;;4.00;;
30533;SDS011;17318;52.390;9.754;2023-09-07T14:15:13;7.93;;;3.53;;
30533;SDS011;17318;52.390;9.754;2023-09-07T14:17:39;9.38;;;3.28;;
30533;SDS011;17318;52.390;9.754;2023-09-07T14:20:05;5.40;;;3.30;;
30533;SDS011;17318;52.390;9.754;2023-09-07T14:22:31;13.95;;;3.95;;
30533;SDS011;17318;52.390;9.754;2023-09-07T14:24:57;4.35;;;3.15;;
30533;SDS011;17318;52.390;9.754;2023-09-07T14:27:22;5.25;;;3.20;;
30533;SDS011;17318;52.390;9.754;2023-09-07T14:29:49;5.80;;;3.08;;
30533;SDS011;17318;52.390;9.754;2023-09-07T14:32:15;8.20;;;3.42;;
30533;SDS011;17318;52.390;9.754;2023-09-07T14:34:40;5.75;;;3.50;;
30533;SDS011;17318;52.390;9.754;2023-09-07T14:37:06;6.05;;;3.55;;
30533;SDS011;17318;52.390;9.754;2023-09-07T14:39:31;6.57;;;3.85;;
30533;SDS011;17318;52.390;9.754;2023-09-07T14:41:57;8.55;;;3.70;;
30533;SDS011;17318;52.390;9.754;2023-09-07T14:44:24;9.02;;;3.22;;
30533;SDS011;17318;52.390;9.754;2023-09-07T14:46:49;5.93;;;3.50;;
30533;SDS011;17318;52.390;9.754;2023-09-07T14:49:16;3.90;;;2.95;;
30533;SDS011;17318;52.390;9.754;2023-09-07T14:51:46;7.50;;;3.55;;